Pittsville, Wisconsin
Current Conditions -  °F | °C
As of 1:54 AM on Sunday 23 Nov 2014 (Local Time) from KMFI Reporting Station
Moderate Fog Moderate Fog  
Wind Chill: 38°   Ceiling: 100
Heat Index: 42°   Visibility: 0.25mi
Dew Point: 41°   Wind: 6mph
Humidity: 96%   Direction: 170°S
Pressure: 29.6"   Gusts: NA
Location:  44.44°N, 90.12°W
Report Text: KMFI 230754Z AUTO 17005KT 1/4SM FG VV001 06/05 A2960 RMK AO2 SLP034 T00560050
Loading
Personal Weather Stations






























Interactive Weather Map New forecast layout! Learn more

10-Day Weather Forecast

Advertisements
Track Severe Weather on mobile